createdAt,value
2018-07-30T00:01:03.542Z,6.20
2018-07-30T00:03:07.514Z,7.53
2018-07-30T00:05:11.420Z,6.13
2018-07-30T00:07:15.051Z,6.83
2018-07-30T00:09:18.643Z,6.20
2018-07-30T00:11:22.287Z,6.33
2018-07-30T00:13:25.903Z,6.23
2018-07-30T00:15:29.467Z,8.57
2018-07-30T00:17:33.104Z,6.73
2018-07-30T00:19:36.636Z,6.20
2018-07-30T00:21:40.144Z,6.10
2018-07-30T00:23:43.687Z,6.13
2018-07-30T00:25:47.301Z,6.83
2018-07-30T00:27:50.844Z,5.97
2018-07-30T00:29:54.776Z,7.57
2018-07-30T00:31:58.324Z,7.47
2018-07-30T00:34:02.326Z,5.90
2018-07-30T00:36:05.877Z,6.10
2018-07-30T00:38:09.473Z,6.00
2018-07-30T00:40:15.639Z,6.20
2018-07-30T00:42:19.161Z,6.97
2018-07-30T00:44:22.720Z,6.10
2018-07-30T00:46:26.317Z,6.73
2018-07-30T00:48:29.824Z,6.43
2018-07-30T00:50:33.774Z,6.80
2018-07-30T00:52:37.970Z,6.60
2018-07-30T00:54:41.478Z,6.83
2018-07-30T00:56:45.049Z,6.17
2018-07-30T00:58:48.748Z,6.30
2018-07-30T01:00:52.359Z,6.40
2018-07-30T01:02:55.875Z,6.90
2018-07-30T01:04:59.505Z,7.10
2018-07-30T01:07:03.069Z,6.43
2018-07-30T01:09:08.766Z,6.93
2018-07-30T01:11:12.315Z,6.67
2018-07-30T01:13:16.223Z,6.07
2018-07-30T01:15:20.208Z,6.13
2018-07-30T01:17:24.196Z,7.43
2018-07-30T01:19:27.758Z,6.77
2018-07-30T01:21:31.465Z,6.93
2018-07-30T01:23:35.116Z,6.57
2018-07-30T01:25:38.752Z,6.60
2018-07-30T01:27:42.306Z,7.00
2018-07-30T01:29:45.853Z,6.33
2018-07-30T01:31:49.793Z,7.13
2018-07-30T01:33:53.797Z,7.33
2018-07-30T01:35:57.344Z,6.57
2018-07-30T01:38:00.877Z,6.77
2018-07-30T01:40:04.890Z,6.90
2018-07-30T01:42:08.481Z,6.60
2018-07-30T01:44:12.035Z,7.07
2018-07-30T01:46:15.604Z,6.60
2018-07-30T01:48:19.114Z,7.13
2018-07-30T01:50:22.712Z,6.57
2018-07-30T01:52:26.302Z,6.60
2018-07-30T01:54:29.854Z,8.37
2018-07-30T01:56:33.434Z,6.80
2018-07-30T01:58:36.995Z,6.60
2018-07-30T02:00:40.501Z,6.80
2018-07-30T02:02:44.504Z,6.63
2018-07-30T02:04:47.994Z,7.07
2018-07-30T02:06:51.594Z,6.90
2018-07-30T02:08:55.155Z,6.53
2018-07-30T02:10:58.687Z,6.27
2018-07-30T02:13:02.202Z,6.83
2018-07-30T02:15:06.201Z,7.77
2018-07-30T02:17:09.798Z,6.97
2018-07-30T02:19:13.382Z,7.10
2018-07-30T02:21:16.978Z,6.30
2018-07-30T02:23:20.555Z,7.47
2018-07-30T02:25:24.107Z,7.20
2018-07-30T02:27:28.045Z,6.60
2018-07-30T02:29:31.577Z,6.90
2018-07-30T02:31:35.204Z,6.90
2018-07-30T02:33:38.845Z,7.60
2018-07-30T02:35:42.434Z,7.17
2018-07-30T02:37:46.059Z,6.97
2018-07-30T02:39:49.641Z,7.87
2018-07-30T02:41:53.571Z,7.90
2018-07-30T02:43:57.166Z,7.17
2018-07-30T02:46:01.115Z,6.93
2018-07-30T02:48:04.733Z,7.97
2018-07-30T02:50:08.352Z,8.33
2018-07-30T02:52:11.944Z,8.00
2018-07-30T02:54:15.536Z,8.03
2018-07-30T02:56:19.074Z,7.80
2018-07-30T02:58:22.682Z,7.10
2018-07-30T03:00:26.591Z,7.53
2018-07-30T03:02:30.234Z,8.30
2018-07-30T03:04:33.820Z,8.27
2018-07-30T03:06:37.371Z,7.10
2018-07-30T03:08:40.998Z,7.73
2018-07-30T03:10:44.572Z,7.40
2018-07-30T03:12:48.509Z,7.80
2018-07-30T03:14:52.467Z,7.73
2018-07-30T03:16:55.963Z,7.33
2018-07-30T03:18:59.544Z,8.50
2018-07-30T03:21:03.425Z,7.60
2018-07-30T03:23:06.953Z,7.20
2018-07-30T03:25:10.459Z,7.20
2018-07-30T03:27:14.402Z,10.13
2018-07-30T03:29:17.974Z,7.50
2018-07-30T03:31:21.726Z,7.37
2018-07-30T03:33:25.344Z,8.20
2018-07-30T03:35:28.962Z,7.07
2018-07-30T03:37:32.457Z,6.47
2018-07-30T03:39:36.054Z,7.00
2018-07-30T03:41:39.658Z,7.80
2018-07-30T03:43:43.212Z,8.00
2018-07-30T03:45:47.095Z,7.70
2018-07-30T03:47:51.038Z,9.20
2018-07-30T03:49:54.958Z,7.17
2018-07-30T03:51:58.460Z,8.37
2018-07-30T03:54:02.369Z,8.63
2018-07-30T03:56:06.228Z,8.30
2018-07-30T03:58:10.151Z,7.70
2018-07-30T04:00:14.136Z,7.33
2018-07-30T04:02:17.776Z,7.37
2018-07-30T04:04:21.377Z,8.17
2018-07-30T04:06:24.891Z,7.10
2018-07-30T04:08:28.615Z,7.97
2018-07-30T04:10:32.180Z,7.70
2018-07-30T04:12:35.723Z,8.13
2018-07-30T04:14:39.465Z,7.87
2018-07-30T04:16:51.306Z,7.23
2018-07-30T04:18:54.783Z,7.10
2018-07-30T04:20:58.388Z,7.70
2018-07-30T04:23:08.413Z,9.50
2018-07-30T04:25:11.996Z,8.20
2018-07-30T04:27:15.569Z,7.73
2018-07-30T04:29:19.073Z,8.47
2018-07-30T04:31:22.646Z,6.90
2018-07-30T04:33:26.259Z,7.97
2018-07-30T04:35:29.816Z,7.40
2018-07-30T04:37:33.390Z,7.47
2018-07-30T04:39:37.331Z,7.90
2018-07-30T04:41:40.929Z,7.50
2018-07-30T04:43:44.534Z,7.83
2018-07-30T04:45:48.417Z,7.77
2018-07-30T04:47:51.987Z,7.47
2018-07-30T04:49:55.489Z,7.83
2018-07-30T04:51:58.969Z,8.27
2018-07-30T04:54:02.755Z,7.30
2018-07-30T04:56:06.365Z,8.07
2018-07-30T04:58:09.924Z,8.67
2018-07-30T05:00:13.459Z,8.03
2018-07-30T05:02:17.721Z,8.63
2018-07-30T05:04:21.319Z,7.23
2018-07-30T05:06:24.959Z,8.03
2018-07-30T05:08:28.670Z,8.30
2018-07-30T05:10:32.673Z,7.87
2018-07-30T05:12:36.437Z,7.03
2018-07-30T05:14:40.056Z,10.10
2018-07-30T05:16:43.629Z,8.30
2018-07-30T05:18:47.364Z,8.17
2018-07-30T05:20:51.409Z,10.60
2018-07-30T05:22:55.005Z,11.00
2018-07-30T05:24:58.853Z,9.00
2018-07-30T05:27:02.469Z,8.83
2018-07-30T05:29:06.394Z,7.53
2018-07-30T05:31:09.992Z,7.77
2018-07-30T05:33:13.647Z,9.87
2018-07-30T05:35:17.202Z,8.00
2018-07-30T05:37:21.174Z,7.33
2018-07-30T05:39:24.946Z,8.07
2018-07-30T05:41:28.696Z,10.23
2018-07-30T05:43:32.586Z,8.83
2018-07-30T05:45:36.198Z,10.10
2018-07-30T05:47:40.211Z,8.50
2018-07-30T05:49:43.790Z,11.37
2018-07-30T05:51:48.428Z,7.80
2018-07-30T05:53:53.265Z,9.20
2018-07-30T05:55:58.353Z,10.07
2018-07-30T05:58:02.338Z,10.67
2018-07-30T06:00:06.827Z,10.87
2018-07-30T06:02:10.610Z,11.97
2018-07-30T06:04:18.225Z,8.93
2018-07-30T06:06:23.405Z,9.27
2018-07-30T06:08:27.771Z,8.27
2018-07-30T06:10:32.262Z,7.20
2018-07-30T06:12:36.204Z,8.27
2018-07-30T06:14:39.849Z,7.13
2018-07-30T06:16:43.444Z,7.37
2018-07-30T06:18:47.207Z,6.60
2018-07-30T06:20:51.388Z,7.13
2018-07-30T06:25:35.765Z,6.87
2018-07-30T06:27:42.248Z,6.27
2018-07-30T06:29:46.061Z,6.33
2018-07-30T06:31:53.672Z,6.30
2018-07-30T06:33:57.789Z,5.67
2018-07-30T06:36:02.483Z,6.60
2018-07-30T06:38:06.095Z,6.33
2018-07-30T06:40:09.684Z,5.80
2018-07-30T06:42:13.585Z,5.90
2018-07-30T06:44:18.589Z,5.87
2018-07-30T06:46:22.168Z,6.17
2018-07-30T06:48:25.845Z,7.10
2018-07-30T06:50:29.546Z,6.23
2018-07-30T06:52:33.187Z,6.60
2018-07-30T06:54:36.840Z,6.43
2018-07-30T06:56:40.725Z,6.47
2018-07-30T06:58:44.280Z,6.43
2018-07-30T07:00:48.145Z,7.40
2018-07-30T07:02:51.706Z,7.40
2018-07-30T07:04:55.343Z,6.93
2018-07-30T07:06:58.928Z,5.53
2018-07-30T07:09:02.988Z,5.67
2018-07-30T07:11:06.687Z,6.13
2018-07-30T07:13:10.332Z,5.23
2018-07-30T07:15:14.805Z,6.67
2018-07-30T07:17:18.712Z,6.70
2018-07-30T07:19:22.425Z,5.10
2018-07-30T07:21:26.064Z,5.67
2018-07-30T07:23:29.820Z,4.90
2018-07-30T07:25:33.468Z,5.13
2018-07-30T07:27:37.079Z,7.80
2018-07-30T07:29:41.117Z,7.43
2018-07-30T07:31:44.836Z,8.13
2018-07-30T07:33:48.409Z,5.27
2018-07-30T07:35:52.219Z,5.03
2018-07-30T07:37:55.799Z,7.10
2018-07-30T07:39:59.420Z,5.17
2018-07-30T07:42:03.059Z,6.00
2018-07-30T07:44:07.076Z,5.37
2018-07-30T07:46:10.663Z,4.70
2018-07-30T07:48:14.230Z,5.27
2018-07-30T07:50:17.944Z,4.83
2018-07-30T07:52:22.441Z,5.00
2018-07-30T07:54:26.397Z,4.95
2018-07-30T07:56:29.983Z,7.12
2018-07-30T07:58:33.597Z,5.10
2018-07-30T08:00:37.279Z,4.20
2018-07-30T08:02:41.492Z,5.37
2018-07-30T08:04:46.024Z,4.35
2018-07-30T08:06:49.606Z,4.47
2018-07-30T08:08:53.242Z,3.95
2018-07-30T08:10:56.866Z,5.08
2018-07-30T08:13:01.225Z,7.03
2018-07-30T08:15:05.439Z,4.33
2018-07-30T08:17:09.395Z,4.85
2018-07-30T08:19:13.517Z,6.00
2018-07-30T08:21:17.677Z,4.50
2018-07-30T08:23:21.378Z,4.10
2018-07-30T08:25:26.279Z,4.50
2018-07-30T08:29:12.179Z,5.83
2018-07-30T08:31:16.451Z,4.25
2018-07-30T08:33:20.747Z,6.08
2018-07-30T08:35:24.883Z,5.55
2018-07-30T08:37:29.083Z,4.95
2018-07-30T08:39:33.178Z,6.03
2018-07-30T08:41:37.577Z,4.62
2018-07-30T08:43:42.412Z,4.47
2018-07-30T08:45:46.565Z,3.67
2018-07-30T08:47:50.797Z,4.33
2018-07-30T08:49:54.954Z,4.72
2018-07-30T08:51:59.838Z,5.08
2018-07-30T08:54:04.224Z,5.67
2018-07-30T08:56:08.473Z,4.78
2018-07-30T08:58:12.723Z,4.47
2018-07-30T09:00:17.374Z,4.15
2018-07-30T09:02:21.786Z,3.22
2018-07-30T09:04:26.277Z,6.42
2018-07-30T09:06:30.673Z,3.33
2018-07-30T09:08:35.455Z,4.00
2018-07-30T09:10:40.601Z,3.17
2018-07-30T09:12:44.982Z,4.45
2018-07-30T09:14:49.379Z,4.15
2018-07-30T09:16:53.529Z,3.60
2018-07-30T09:18:57.876Z,3.83
2018-07-30T09:21:02.429Z,3.83
2018-07-30T09:23:07.024Z,5.10
2018-07-30T09:25:11.640Z,4.35
2018-07-30T09:27:15.897Z,4.17
2018-07-30T09:29:20.216Z,3.75
2018-07-30T09:31:24.489Z,5.03
2018-07-30T09:33:29.023Z,4.28
2018-07-30T09:35:33.179Z,5.20
2018-07-30T09:37:37.380Z,3.80
2018-07-30T09:39:42.178Z,5.95
2018-07-30T09:41:46.487Z,3.35
2018-07-30T09:43:51.124Z,3.87
2018-07-30T09:45:55.374Z,3.27
2018-07-30T09:47:59.954Z,5.17
2018-07-30T09:50:04.526Z,3.70
2018-07-30T09:52:08.775Z,3.77
2018-07-30T09:54:13.000Z,3.08
2018-07-30T09:56:17.258Z,2.85
2018-07-30T09:58:21.793Z,2.80
2018-07-30T10:00:32.763Z,2.58
2018-07-30T10:02:37.102Z,4.95
2018-07-30T10:04:44.003Z,3.02
2018-07-30T10:06:48.084Z,2.80
2018-07-30T10:08:52.358Z,2.90
2018-07-30T10:10:57.065Z,2.50
2018-07-30T10:13:01.173Z,3.00
2018-07-30T10:15:05.807Z,3.95
2018-07-30T10:17:09.973Z,2.60
2018-07-30T10:19:16.032Z,2.75
2018-07-30T10:21:20.838Z,3.02
2018-07-30T10:23:25.105Z,2.95
2018-07-30T10:25:29.351Z,3.15
2018-07-30T10:27:47.076Z,5.12
2018-07-30T10:29:51.699Z,2.98
2018-07-30T10:31:55.889Z,2.95
2018-07-30T10:34:00.082Z,2.75
2018-07-30T10:36:04.660Z,2.95
2018-07-30T10:38:08.932Z,3.15
2018-07-30T10:40:13.596Z,3.22
2018-07-30T10:42:17.747Z,2.60
2018-07-30T10:44:22.029Z,4.50
2018-07-30T10:46:35.216Z,2.98
2018-07-30T10:48:38.817Z,3.20
2018-07-30T10:50:42.446Z,3.07
2018-07-30T10:52:46.073Z,2.83
2018-07-30T10:54:49.636Z,3.43
2018-07-30T10:56:53.940Z,3.70
2018-07-30T10:58:57.956Z,3.20
2018-07-30T11:01:01.730Z,4.80
2018-07-30T11:03:05.452Z,4.73
2018-07-30T11:05:09.744Z,4.00
2018-07-30T11:07:13.699Z,3.20
2018-07-30T11:09:17.300Z,3.73
2018-07-30T11:11:20.884Z,3.33
2018-07-30T11:13:24.428Z,4.00
2018-07-30T11:15:28.237Z,3.43
2018-07-30T11:17:31.988Z,3.60
2018-07-30T11:19:35.592Z,5.00
2018-07-30T11:21:39.582Z,2.83
2018-07-30T11:23:43.214Z,4.10
2018-07-30T11:25:46.922Z,3.53
2018-07-30T11:27:50.815Z,3.00
2018-07-30T11:29:54.474Z,4.13
2018-07-30T11:31:58.125Z,4.40
2018-07-30T11:34:02.098Z,3.97
2018-07-30T11:36:05.774Z,3.43
2018-07-30T11:38:09.482Z,4.07
2018-07-30T11:40:13.378Z,3.73
2018-07-30T11:42:17.055Z,3.90
2018-07-30T11:44:20.773Z,4.27
2018-07-30T11:46:24.690Z,3.97
2018-07-30T11:48:28.733Z,3.60
2018-07-30T11:50:32.569Z,3.37
2018-07-30T11:52:36.198Z,3.93
2018-07-30T11:54:39.916Z,3.43
2018-07-30T11:56:43.973Z,4.70
2018-07-30T11:58:47.786Z,3.27
2018-07-30T12:00:51.295Z,3.43
2018-07-30T12:02:55.279Z,4.30
2018-07-30T12:04:58.983Z,3.57
2018-07-30T12:07:02.891Z,4.27
2018-07-30T12:09:07.692Z,3.37
2018-07-30T12:11:11.348Z,3.10
2018-07-30T12:13:14.996Z,3.37
2018-07-30T12:15:18.705Z,4.23
2018-07-30T12:17:22.326Z,4.07
2018-07-30T12:19:25.953Z,3.30
2018-07-30T12:21:30.343Z,5.47
2018-07-30T12:23:34.105Z,3.97
2018-07-30T12:25:37.763Z,3.83
2018-07-30T12:27:41.528Z,3.30
2018-07-30T12:29:45.246Z,4.77
2018-07-30T12:31:48.838Z,4.70
2018-07-30T12:33:52.514Z,4.00
2018-07-30T12:35:56.240Z,5.53
2018-07-30T12:37:59.966Z,3.60
2018-07-30T12:40:04.041Z,4.10
2018-07-30T12:42:08.105Z,3.90
2018-07-30T12:44:11.782Z,4.53
2018-07-30T12:46:15.692Z,3.93
2018-07-30T12:48:20.824Z,3.90
2018-07-30T12:50:24.581Z,4.60
2018-07-30T12:52:28.290Z,4.50
2018-07-30T12:54:31.971Z,4.63
2018-07-30T12:56:35.760Z,3.97
2018-07-30T12:58:39.462Z,3.30
2018-07-30T13:00:43.056Z,4.50
2018-07-30T13:02:46.761Z,3.47
2018-07-30T13:04:50.710Z,4.07
2018-07-30T13:06:54.302Z,3.00
2018-07-30T13:08:58.640Z,3.13
2018-07-30T13:11:02.573Z,3.20
2018-07-30T13:13:06.243Z,3.70
2018-07-30T13:15:09.989Z,3.50
2018-07-30T13:17:13.609Z,3.50
2018-07-30T13:19:17.377Z,3.23
2018-07-30T13:21:21.370Z,3.60
2018-07-30T13:23:24.892Z,3.33
2018-07-30T13:25:28.658Z,3.77
2018-07-30T13:27:32.247Z,3.43
2018-07-30T13:29:35.814Z,4.03
2018-07-30T13:31:39.350Z,3.50
2018-07-30T13:33:42.974Z,3.30
2018-07-30T13:35:46.568Z,3.60
2018-07-30T13:37:50.591Z,3.03
2018-07-30T13:39:54.487Z,3.17
2018-07-30T13:41:58.243Z,3.73
2018-07-30T13:44:01.874Z,3.60
2018-07-30T13:46:05.897Z,3.77
2018-07-30T13:48:09.599Z,3.30
2018-07-30T13:50:13.360Z,3.57
2018-07-30T13:52:16.900Z,3.37
2018-07-30T13:54:20.528Z,3.17
2018-07-30T13:56:24.244Z,4.17
2018-07-30T13:58:28.195Z,3.97
2018-07-30T14:00:31.752Z,3.83
2018-07-30T14:02:35.618Z,3.50
2018-07-30T14:04:39.148Z,3.50
2018-07-30T14:06:42.889Z,3.50
2018-07-30T14:08:46.667Z,3.17
2018-07-30T14:10:50.284Z,5.43
2018-07-30T14:12:54.000Z,3.37
2018-07-30T14:14:57.736Z,4.13
2018-07-30T14:17:01.344Z,3.50
2018-07-30T14:19:05.154Z,3.20
2018-07-30T14:21:08.797Z,2.93
2018-07-30T14:23:13.209Z,3.40
2018-07-30T14:25:17.161Z,3.20
2018-07-30T14:27:20.804Z,3.00
2018-07-30T14:29:24.370Z,4.50
2018-07-30T14:31:28.012Z,4.90
2018-07-30T14:33:31.602Z,5.40
2018-07-30T14:35:35.300Z,4.07
2018-07-30T14:37:38.974Z,4.10
2018-07-30T14:39:42.484Z,3.80
2018-07-30T14:41:46.093Z,4.83
2018-07-30T14:43:50.084Z,4.07
2018-07-30T14:45:53.655Z,3.63
2018-07-30T14:47:57.178Z,3.50
2018-07-30T14:50:00.794Z,3.73
2018-07-30T14:52:04.439Z,3.50
2018-07-30T14:54:08.410Z,5.83
2018-07-30T14:56:12.420Z,3.83
2018-07-30T14:58:16.132Z,3.37
2018-07-30T15:00:20.213Z,4.37
2018-07-30T15:02:23.804Z,3.77
2018-07-30T15:04:27.364Z,4.10
2018-07-30T15:06:30.972Z,3.40
2018-07-30T15:08:34.523Z,3.90
2018-07-30T15:10:38.083Z,4.17
2018-07-30T15:12:41.801Z,3.73
2018-07-30T15:14:45.375Z,4.07
2018-07-30T15:16:48.986Z,3.57
2018-07-30T15:18:52.741Z,3.73
2018-07-30T15:20:56.353Z,4.00
2018-07-30T15:23:00.378Z,3.40
2018-07-30T15:25:04.257Z,3.83
2018-07-30T15:27:08.014Z,4.07
2018-07-30T15:29:11.566Z,3.57
2018-07-30T15:31:15.040Z,4.37
2018-07-30T15:33:18.682Z,3.57
2018-07-30T15:35:22.281Z,3.33
2018-07-30T15:37:26.222Z,3.90
2018-07-30T15:39:29.738Z,3.73
2018-07-30T15:41:33.276Z,5.73
2018-07-30T15:43:36.830Z,3.77
2018-07-30T15:45:40.396Z,4.77
2018-07-30T15:47:44.261Z,3.90
2018-07-30T15:49:47.795Z,4.27
2018-07-30T15:51:51.308Z,3.63
2018-07-30T15:53:54.954Z,3.53
2018-07-30T15:55:59.062Z,3.57
2018-07-30T15:58:02.662Z,3.23
2018-07-30T16:00:07.897Z,3.90
2018-07-30T16:02:11.440Z,3.80
2018-07-30T16:04:15.022Z,3.13
2018-07-30T16:06:18.799Z,3.60
2018-07-30T16:08:22.416Z,4.83
2018-07-30T16:10:25.964Z,3.33
2018-07-30T16:12:29.543Z,4.13
2018-07-30T16:14:33.166Z,3.60
2018-07-30T16:16:38.076Z,3.83
2018-07-30T16:18:41.763Z,3.90
2018-07-30T16:20:45.724Z,3.30
2018-07-30T16:22:49.264Z,4.53
2018-07-30T16:24:52.863Z,3.60
2018-07-30T16:26:56.809Z,3.93
2018-07-30T16:29:00.762Z,3.43
2018-07-30T16:31:04.331Z,4.33
2018-07-30T16:33:07.888Z,4.10
2018-07-30T16:35:11.527Z,3.83
2018-07-30T16:37:15.597Z,4.37
2018-07-30T16:39:19.159Z,3.50
2018-07-30T16:41:22.736Z,5.67
2018-07-30T16:43:26.261Z,3.77
2018-07-30T16:45:29.810Z,3.63
2018-07-30T16:47:33.408Z,4.07
2018-07-30T16:49:37.050Z,6.10
2018-07-30T16:51:40.706Z,4.70
2018-07-30T16:53:44.602Z,4.03
2018-07-30T16:55:48.619Z,4.57
2018-07-30T16:57:52.206Z,3.37
2018-07-30T16:59:55.764Z,3.20
2018-07-30T17:01:59.328Z,5.27
2018-07-30T17:04:02.884Z,3.70
2018-07-30T17:06:06.713Z,3.60
2018-07-30T17:08:10.681Z,3.70
2018-07-30T17:10:14.556Z,5.43
2018-07-30T17:12:18.073Z,4.07
2018-07-30T17:14:21.614Z,4.57
2018-07-30T17:16:25.199Z,4.13
2018-07-30T17:18:28.663Z,3.43
2018-07-30T17:20:32.599Z,4.27
2018-07-30T17:22:36.142Z,4.10
2018-07-30T17:24:40.006Z,3.57
2018-07-30T17:26:43.937Z,3.90
2018-07-30T17:28:47.502Z,3.47
2018-07-30T17:30:51.072Z,6.13
2018-07-30T17:32:54.685Z,4.10
2018-07-30T17:34:58.246Z,4.27
2018-07-30T17:37:01.794Z,3.70
2018-07-30T17:39:07.745Z,5.43
2018-07-30T17:41:11.307Z,4.57
2018-07-30T17:43:14.889Z,6.00
2018-07-30T17:45:18.430Z,4.20
2018-07-30T17:47:22.024Z,4.80
2018-07-30T17:49:25.651Z,3.50
2018-07-30T17:51:29.219Z,3.63
2018-07-30T17:53:32.752Z,3.97
2018-07-30T17:55:36.274Z,3.83
2018-07-30T17:57:39.886Z,3.90
2018-07-30T17:59:43.558Z,4.57
2018-07-30T18:01:47.189Z,3.20
2018-07-30T18:03:50.769Z,4.10
2018-07-30T18:05:54.305Z,3.50
2018-07-30T18:07:57.928Z,5.33
2018-07-30T18:10:01.513Z,4.10
2018-07-30T18:12:05.092Z,3.27
2018-07-30T18:14:08.650Z,3.87
2018-07-30T18:16:12.184Z,4.33
2018-07-30T18:18:15.756Z,5.57
2018-07-30T18:20:19.379Z,4.67
2018-07-30T18:22:22.994Z,4.23
2018-07-30T18:24:26.536Z,4.47
2018-07-30T18:26:30.278Z,4.30
2018-07-30T18:28:33.900Z,4.00
2018-07-30T18:30:37.438Z,4.67
2018-07-30T18:32:41.476Z,4.60
2018-07-30T18:34:45.019Z,3.77
2018-07-30T18:36:48.940Z,3.73
2018-07-30T18:38:52.477Z,3.70
2018-07-30T18:40:56.050Z,3.97
2018-07-30T18:42:59.647Z,4.47
2018-07-30T18:45:03.270Z,4.33
2018-07-30T18:47:06.792Z,3.97
2018-07-30T18:49:10.685Z,4.60
2018-07-30T18:51:14.189Z,4.50
2018-07-30T18:53:17.785Z,4.07
2018-07-30T18:55:21.373Z,4.43
2018-07-30T18:57:25.286Z,4.57
2018-07-30T18:59:28.876Z,4.27
2018-07-30T19:01:32.523Z,4.80
2018-07-30T19:03:36.244Z,4.30
2018-07-30T19:05:40.177Z,4.47
2018-07-30T19:07:43.763Z,7.27
2018-07-30T19:09:47.323Z,12.93
2018-07-30T19:11:50.879Z,12.80
2018-07-30T19:13:54.438Z,7.83
2018-07-30T19:15:58.076Z,10.60
2018-07-30T19:18:01.593Z,6.67
2018-07-30T19:20:05.176Z,7.07
2018-07-30T19:22:08.746Z,10.27
2018-07-30T19:24:12.536Z,13.80
2018-07-30T19:26:16.099Z,7.90
2018-07-30T19:28:20.172Z,9.03
2018-07-30T19:30:23.756Z,8.83
2018-07-30T19:32:27.358Z,5.13
2018-07-30T19:34:31.152Z,7.13
2018-07-30T19:36:34.760Z,4.60
2018-07-30T19:38:38.344Z,5.07
2018-07-30T19:40:42.158Z,5.53
2018-07-30T19:42:45.663Z,4.97
2018-07-30T19:44:49.241Z,7.47
2018-07-30T19:46:52.751Z,4.63
2018-07-30T19:48:56.323Z,5.57
2018-07-30T19:51:00.054Z,4.63
2018-07-30T19:53:03.612Z,5.00
2018-07-30T19:55:07.232Z,6.93
2018-07-30T19:57:10.841Z,5.77
2018-07-30T19:59:14.351Z,5.13
2018-07-30T20:01:17.942Z,4.70
2018-07-30T20:03:22.685Z,5.57
2018-07-30T20:05:26.348Z,5.70
2018-07-30T20:07:29.946Z,5.27
2018-07-30T20:09:33.487Z,5.30
2018-07-30T20:11:37.017Z,6.07
2018-07-30T20:13:40.667Z,6.47
2018-07-30T20:15:44.644Z,5.00
2018-07-30T20:17:48.275Z,5.10
2018-07-30T20:19:51.839Z,6.33
2018-07-30T20:21:55.388Z,5.00
2018-07-30T20:23:58.904Z,5.37
2018-07-30T20:26:02.455Z,5.17
2018-07-30T20:28:05.997Z,4.90
2018-07-30T20:30:09.673Z,5.23
2018-07-30T20:32:13.614Z,4.70
2018-07-30T20:34:17.167Z,5.63
2018-07-30T20:36:20.725Z,6.00
2018-07-30T20:38:24.223Z,5.00
2018-07-30T20:40:27.958Z,6.13
2018-07-30T20:42:31.832Z,6.03
2018-07-30T20:44:35.334Z,6.63
2018-07-30T20:46:38.940Z,5.57
2018-07-30T20:48:42.485Z,6.10
2018-07-30T20:50:46.075Z,5.97
2018-07-30T20:52:49.677Z,5.53
2018-07-30T20:54:53.728Z,5.17
2018-07-30T20:56:58.022Z,5.37
2018-07-30T20:59:02.093Z,4.93
2018-07-30T21:01:05.804Z,6.00
2018-07-30T21:03:09.380Z,5.53
2018-07-30T21:05:12.951Z,5.20
2018-07-30T21:07:16.901Z,5.33
2018-07-30T21:09:20.458Z,5.07
2018-07-30T21:11:23.980Z,5.63
2018-07-30T21:13:27.584Z,4.43
2018-07-30T21:15:31.148Z,4.50
2018-07-30T21:17:35.481Z,4.70
2018-07-30T21:19:39.056Z,5.13
2018-07-30T21:21:42.587Z,5.47
2018-07-30T21:23:46.887Z,7.87
2018-07-30T21:25:50.407Z,5.43
2018-07-30T21:27:53.961Z,5.30
2018-07-30T21:29:58.140Z,5.60
2018-07-30T21:32:02.081Z,7.00
2018-07-30T21:34:05.711Z,7.80
2018-07-30T21:36:09.240Z,5.87
2018-07-30T21:38:12.756Z,5.60
2018-07-30T21:40:16.283Z,6.07
2018-07-30T21:42:19.851Z,5.30
2018-07-30T21:44:23.390Z,5.67
2018-07-30T21:46:26.911Z,5.33
2018-07-30T21:48:30.413Z,5.50
2018-07-30T21:50:33.938Z,5.33
2018-07-30T21:52:37.445Z,5.60
2018-07-30T21:54:41.406Z,6.33
2018-07-30T21:56:44.910Z,5.80
2018-07-30T21:58:48.537Z,8.47
2018-07-30T22:00:56.567Z,5.50
2018-07-30T22:03:00.091Z,5.40
2018-07-30T22:05:03.660Z,6.03
2018-07-30T22:07:07.190Z,6.60
2018-07-30T22:09:11.088Z,6.00
2018-07-30T22:11:14.667Z,6.27
2018-07-30T22:13:18.260Z,6.17
2018-07-30T22:15:22.272Z,5.57
2018-07-30T22:17:25.872Z,6.73
2018-07-30T22:19:29.387Z,5.87
2018-07-30T22:21:32.914Z,5.43
2018-07-30T22:23:36.431Z,6.53
2018-07-30T22:25:40.003Z,5.50
2018-07-30T22:27:43.529Z,6.97
2018-07-30T22:29:47.061Z,6.23
2018-07-30T22:31:50.604Z,6.27
2018-07-30T22:33:54.257Z,6.53
2018-07-30T22:35:57.808Z,6.60
2018-07-30T22:38:01.340Z,5.97
2018-07-30T22:40:06.115Z,6.80
2018-07-30T22:42:09.640Z,8.73
2018-07-30T22:44:13.211Z,6.57
2018-07-30T22:46:16.772Z,5.30
2018-07-30T22:48:20.301Z,5.63
2018-07-30T22:50:23.858Z,8.20
2018-07-30T22:52:27.762Z,5.63
2018-07-30T22:54:31.264Z,6.30
2018-07-30T22:56:34.809Z,6.00
2018-07-30T22:58:38.342Z,7.17
2018-07-30T23:00:42.479Z,6.67
2018-07-30T23:02:46.186Z,5.70
2018-07-30T23:04:49.756Z,6.97
2018-07-30T23:06:53.323Z,6.47
2018-07-30T23:08:57.002Z,6.47
2018-07-30T23:11:00.925Z,7.10
2018-07-30T23:13:04.560Z,6.73
2018-07-30T23:15:08.184Z,6.50
2018-07-30T23:17:11.745Z,6.10
2018-07-30T23:19:15.277Z,7.27
2018-07-30T23:21:18.788Z,6.00
2018-07-30T23:23:22.718Z,6.13
2018-07-30T23:25:26.236Z,5.90
2018-07-30T23:27:29.843Z,7.10
2018-07-30T23:29:33.408Z,5.73
2018-07-30T23:31:36.923Z,6.47
2018-07-30T23:33:40.493Z,6.43
2018-07-30T23:35:44.020Z,6.33
2018-07-30T23:37:47.623Z,6.10
2018-07-30T23:39:51.184Z,6.03
2018-07-30T23:41:54.726Z,6.73
2018-07-30T23:43:58.262Z,7.53
2018-07-30T23:46:01.797Z,7.23
2018-07-30T23:48:05.440Z,6.03
2018-07-30T23:50:08.933Z,5.90
2018-07-30T23:52:12.445Z,6.53
2018-07-30T23:54:16.084Z,6.37
2018-07-30T23:56:19.586Z,6.27
2018-07-30T23:58:23.172Z,6.30
